Bradford, New York
Current Conditions -  °F | °C
As of 7:53 PM on Monday 24 Nov 2014 (Local Time) from KELM Reporting Station
Broken Clouds Broken Clouds  
Wind Chill: 19°   Ceiling: 9000
Heat Index: 19°   Visibility: 10mi
Dew Point:   Wind: 23mph
Humidity: 37%   Direction: 240°WSW
Pressure: 29.55"   Gusts: 36mph
Location:  42.37°N, 77.11°W
Report Text: KELM 250053Z 24020G31KT 10SM BKN090 19/04 A2955 RMK AO2 PK WND 25031/0046 SLP002 T01940044
Loading
Personal Weather Stations






























Interactive Weather Map New forecast layout! Learn more

10-Day Weather Forecast

Advertisements
Track Severe Weather on mobile